sensor_id;sensor_type;location;lat;lon;timestamp;temperature;humidity
12622;DHT22;6376;48.182;-1.644;2024-01-16T00:00:45;8.10;75.20
12622;DHT22;6376;48.182;-1.644;2024-01-16T00:03:12;8.10;75.30
12622;DHT22;6376;48.182;-1.644;2024-01-16T00:05:37;8.10;75.90
12622;DHT22;6376;48.182;-1.644;2024-01-16T00:08:03;8.10;75.10
12622;DHT22;6376;48.182;-1.644;2024-01-16T00:10:29;8.00;75.10
12622;DHT22;6376;48.182;-1.644;2024-01-16T00:12:54;8.00;75.10
12622;DHT22;6376;48.182;-1.644;2024-01-16T00:15:20;8.00;75.20
12622;DHT22;6376;48.182;-1.644;2024-01-16T00:17:46;8.00;75.10
12622;DHT22;6376;48.182;-1.644;2024-01-16T00:20:12;8.00;75.20
12622;DHT22;6376;48.182;-1.644;2024-01-16T00:22:37;8.00;75.10
12622;DHT22;6376;48.182;-1.644;2024-01-16T00:25:03;8.00;75.10
12622;DHT22;6376;48.182;-1.644;2024-01-16T00:27:29;8.00;75.20
12622;DHT22;6376;48.182;-1.644;2024-01-16T00:29:54;8.00;75.20
12622;DHT22;6376;48.182;-1.644;2024-01-16T00:32:20;8.00;75.20
12622;DHT22;6376;48.182;-1.644;2024-01-16T00:34:46;8.00;75.20
12622;DHT22;6376;48.182;-1.644;2024-01-16T00:37:11;8.00;75.20
12622;DHT22;6376;48.182;-1.644;2024-01-16T00:39:37;8.00;75.20
12622;DHT22;6376;48.182;-1.644;2024-01-16T00:42:03;8.00;75.10
12622;DHT22;6376;48.182;-1.644;2024-01-16T00:44:29;8.00;75.20
12622;DHT22;6376;48.182;-1.644;2024-01-16T00:46:54;8.00;75.20
12622;DHT22;6376;48.182;-1.644;2024-01-16T00:49:20;8.00;75.20
12622;DHT22;6376;48.182;-1.644;2024-01-16T00:51:46;7.90;75.00
12622;DHT22;6376;48.182;-1.644;2024-01-16T00:54:11;8.00;75.40
12622;DHT22;6376;48.182;-1.644;2024-01-16T00:56:42;7.90;75.00
12622;DHT22;6376;48.182;-1.644;2024-01-16T00:59:08;7.90;75.20
12622;DHT22;6376;48.182;-1.644;2024-01-16T01:01:34;7.90;75.10
12622;DHT22;6376;48.182;-1.644;2024-01-16T01:04:02;7.90;75.20
12622;DHT22;6376;48.182;-1.644;2024-01-16T01:06:28;7.90;75.30
12622;DHT22;6376;48.182;-1.644;2024-01-16T01:08:53;7.90;75.30
12622;DHT22;6376;48.182;-1.644;2024-01-16T01:11:19;7.90;75.30
12622;DHT22;6376;48.182;-1.644;2024-01-16T01:13:44;7.90;75.20
12622;DHT22;6376;48.182;-1.644;2024-01-16T01:16:10;7.90;75.30
12622;DHT22;6376;48.182;-1.644;2024-01-16T01:18:36;7.90;75.30
12622;DHT22;6376;48.182;-1.644;2024-01-16T01:21:01;7.90;75.20
12622;DHT22;6376;48.182;-1.644;2024-01-16T01:23:27;7.90;75.30
12622;DHT22;6376;48.182;-1.644;2024-01-16T01:25:53;7.90;75.20
12622;DHT22;6376;48.182;-1.644;2024-01-16T01:28:19;7.90;75.00
12622;DHT22;6376;48.182;-1.644;2024-01-16T01:30:44;7.90;75.10
12622;DHT22;6376;48.182;-1.644;2024-01-16T01:33:10;7.90;75.60
12622;DHT22;6376;48.182;-1.644;2024-01-16T01:35:37;7.80;75.20
12622;DHT22;6376;48.182;-1.644;2024-01-16T01:38:03;7.90;75.20
12622;DHT22;6376;48.182;-1.644;2024-01-16T01:40:28;7.80;75.00
12622;DHT22;6376;48.182;-1.644;2024-01-16T01:42:54;7.80;75.20
12622;DHT22;6376;48.182;-1.644;2024-01-16T01:45:20;7.80;75.30
12622;DHT22;6376;48.182;-1.644;2024-01-16T01:47:46;7.80;75.20
12622;DHT22;6376;48.182;-1.644;2024-01-16T01:50:13;7.80;75.00
12622;DHT22;6376;48.182;-1.644;2024-01-16T01:52:40;7.80;75.10
12622;DHT22;6376;48.182;-1.644;2024-01-16T01:55:10;7.80;75.20
12622;DHT22;6376;48.182;-1.644;2024-01-16T01:57:36;7.80;75.10
12622;DHT22;6376;48.182;-1.644;2024-01-16T02:00:03;7.80;75.30
12622;DHT22;6376;48.182;-1.644;2024-01-16T02:02:30;7.80;75.20
12622;DHT22;6376;48.182;-1.644;2024-01-16T02:04:56;7.80;75.30
12622;DHT22;6376;48.182;-1.644;2024-01-16T02:07:22;7.80;75.20
12622;DHT22;6376;48.182;-1.644;2024-01-16T02:09:49;7.80;75.30
12622;DHT22;6376;48.182;-1.644;2024-01-16T02:12:15;7.80;75.30
12622;DHT22;6376;48.182;-1.644;2024-01-16T02:14:41;7.80;75.00
12622;DHT22;6376;48.182;-1.644;2024-01-16T02:17:06;7.80;75.00
12622;DHT22;6376;48.182;-1.644;2024-01-16T02:19:32;7.80;75.20
12622;DHT22;6376;48.182;-1.644;2024-01-16T02:22:00;7.80;75.20
12622;DHT22;6376;48.182;-1.644;2024-01-16T02:24:29;7.80;75.20
12622;DHT22;6376;48.182;-1.644;2024-01-16T02:26:55;7.80;75.00
12622;DHT22;6376;48.182;-1.644;2024-01-16T02:29:21;7.80;75.20
12622;DHT22;6376;48.182;-1.644;2024-01-16T02:31:47;7.80;75.00
12622;DHT22;6376;48.182;-1.644;2024-01-16T02:34:12;7.80;75.20
12622;DHT22;6376;48.182;-1.644;2024-01-16T02:36:38;7.80;75.10
12622;DHT22;6376;48.182;-1.644;2024-01-16T02:39:04;7.80;75.10
12622;DHT22;6376;48.182;-1.644;2024-01-16T02:41:31;7.70;74.90
12622;DHT22;6376;48.182;-1.644;2024-01-16T02:43:57;7.80;75.00
12622;DHT22;6376;48.182;-1.644;2024-01-16T02:46:23;7.80;74.90
12622;DHT22;6376;48.182;-1.644;2024-01-16T02:48:48;7.70;74.90
12622;DHT22;6376;48.182;-1.644;2024-01-16T02:51:14;7.80;75.00
12622;DHT22;6376;48.182;-1.644;2024-01-16T02:53:41;7.70;75.10
12622;DHT22;6376;48.182;-1.644;2024-01-16T02:56:08;7.80;75.10
12622;DHT22;6376;48.182;-1.644;2024-01-16T02:58:35;7.80;75.20
12622;DHT22;6376;48.182;-1.644;2024-01-16T03:01:00;7.80;75.20
12622;DHT22;6376;48.182;-1.644;2024-01-16T03:03:26;7.70;74.90
12622;DHT22;6376;48.182;-1.644;2024-01-16T03:05:52;7.70;74.90
12622;DHT22;6376;48.182;-1.644;2024-01-16T03:08:18;7.70;74.90
12622;DHT22;6376;48.182;-1.644;2024-01-16T03:10:43;7.50;74.80
12622;DHT22;6376;48.182;-1.644;2024-01-16T03:13:09;7.80;75.00
12622;DHT22;6376;48.182;-1.644;2024-01-16T03:15:35;7.70;74.90
12622;DHT22;6376;48.182;-1.644;2024-01-16T03:18:01;7.80;74.90
12622;DHT22;6376;48.182;-1.644;2024-01-16T03:20:28;7.80;75.00
12622;DHT22;6376;48.182;-1.644;2024-01-16T03:22:53;7.70;75.10
12622;DHT22;6376;48.182;-1.644;2024-01-16T03:25:19;7.80;75.00
12622;DHT22;6376;48.182;-1.644;2024-01-16T03:27:46;7.70;74.90
12622;DHT22;6376;48.182;-1.644;2024-01-16T03:30:12;7.70;74.90
12622;DHT22;6376;48.182;-1.644;2024-01-16T03:32:38;7.70;74.90
12622;DHT22;6376;48.182;-1.644;2024-01-16T03:35:05;7.70;74.90
12622;DHT22;6376;48.182;-1.644;2024-01-16T03:37:31;7.70;75.00
12622;DHT22;6376;48.182;-1.644;2024-01-16T03:39:57;8.00;75.10
12622;DHT22;6376;48.182;-1.644;2024-01-16T03:42:23;7.70;74.90
12622;DHT22;6376;48.182;-1.644;2024-01-16T03:44:49;7.70;74.90
12622;DHT22;6376;48.182;-1.644;2024-01-16T03:47:15;7.70;74.80
12622;DHT22;6376;48.182;-1.644;2024-01-16T03:49:40;7.70;74.80
12622;DHT22;6376;48.182;-1.644;2024-01-16T03:52:06;7.70;74.90
12622;DHT22;6376;48.182;-1.644;2024-01-16T03:54:32;7.70;74.70
12622;DHT22;6376;48.182;-1.644;2024-01-16T03:56:57;7.70;74.60
12622;DHT22;6376;48.182;-1.644;2024-01-16T03:59:23;7.70;74.80
12622;DHT22;6376;48.182;-1.644;2024-01-16T04:01:49;7.70;74.70
12622;DHT22;6376;48.182;-1.644;2024-01-16T04:04:15;7.70;74.70
12622;DHT22;6376;48.182;-1.644;2024-01-16T04:06:42;7.70;74.80
12622;DHT22;6376;48.182;-1.644;2024-01-16T04:09:08;7.70;74.70
12622;DHT22;6376;48.182;-1.644;2024-01-16T04:11:34;7.70;74.70
12622;DHT22;6376;48.182;-1.644;2024-01-16T04:14:00;7.70;74.80
12622;DHT22;6376;48.182;-1.644;2024-01-16T04:16:26;7.70;74.70
12622;DHT22;6376;48.182;-1.644;2024-01-16T04:18:52;7.70;74.70
12622;DHT22;6376;48.182;-1.644;2024-01-16T04:21:18;7.70;74.60
12622;DHT22;6376;48.182;-1.644;2024-01-16T04:23:44;7.70;74.70
12622;DHT22;6376;48.182;-1.644;2024-01-16T04:26:09;7.70;74.70
12622;DHT22;6376;48.182;-1.644;2024-01-16T04:28:35;7.70;74.60
12622;DHT22;6376;48.182;-1.644;2024-01-16T04:31:03;7.70;74.70
12622;DHT22;6376;48.182;-1.644;2024-01-16T04:33:28;7.70;74.70
12622;DHT22;6376;48.182;-1.644;2024-01-16T04:35:55;7.70;74.60
12622;DHT22;6376;48.182;-1.644;2024-01-16T04:38:20;7.70;74.80
12622;DHT22;6376;48.182;-1.644;2024-01-16T04:40:46;7.70;74.70
12622;DHT22;6376;48.182;-1.644;2024-01-16T04:43:12;7.70;74.60
12622;DHT22;6376;48.182;-1.644;2024-01-16T04:45:38;7.70;74.60
12622;DHT22;6376;48.182;-1.644;2024-01-16T04:48:04;7.80;74.70
12622;DHT22;6376;48.182;-1.644;2024-01-16T04:50:29;7.70;74.70
12622;DHT22;6376;48.182;-1.644;2024-01-16T04:52:58;7.70;74.70
12622;DHT22;6376;48.182;-1.644;2024-01-16T04:55:30;7.70;74.80
12622;DHT22;6376;48.182;-1.644;2024-01-16T04:57:56;7.70;74.70
12622;DHT22;6376;48.182;-1.644;2024-01-16T05:00:22;7.70;74.70
12622;DHT22;6376;48.182;-1.644;2024-01-16T05:02:48;7.70;74.50
12622;DHT22;6376;48.182;-1.644;2024-01-16T05:05:14;7.70;74.60
12622;DHT22;6376;48.182;-1.644;2024-01-16T05:07:41;7.70;74.60
12622;DHT22;6376;48.182;-1.644;2024-01-16T05:10:09;7.70;74.80
12622;DHT22;6376;48.182;-1.644;2024-01-16T05:12:35;7.60;74.80
12622;DHT22;6376;48.182;-1.644;2024-01-16T05:15:01;7.70;74.70
12622;DHT22;6376;48.182;-1.644;2024-01-16T05:17:27;7.70;74.70
12622;DHT22;6376;48.182;-1.644;2024-01-16T05:19:52;7.60;74.60
12622;DHT22;6376;48.182;-1.644;2024-01-16T05:22:18;8.30;75.20
12622;DHT22;6376;48.182;-1.644;2024-01-16T05:24:44;7.70;74.90
12622;DHT22;6376;48.182;-1.644;2024-01-16T05:27:10;7.60;74.80
12622;DHT22;6376;48.182;-1.644;2024-01-16T05:29:35;7.60;74.70
12622;DHT22;6376;48.182;-1.644;2024-01-16T05:32:03;7.60;74.70
12622;DHT22;6376;48.182;-1.644;2024-01-16T05:34:29;7.60;74.80
12622;DHT22;6376;48.182;-1.644;2024-01-16T05:36:55;7.60;74.70
12622;DHT22;6376;48.182;-1.644;2024-01-16T05:39:20;7.60;74.80
12622;DHT22;6376;48.182;-1.644;2024-01-16T05:41:46;7.60;74.70
12622;DHT22;6376;48.182;-1.644;2024-01-16T05:44:12;7.60;74.60
12622;DHT22;6376;48.182;-1.644;2024-01-16T05:46:38;7.60;74.70
12622;DHT22;6376;48.182;-1.644;2024-01-16T05:49:03;7.60;74.90
12622;DHT22;6376;48.182;-1.644;2024-01-16T05:51:29;7.60;74.80
12622;DHT22;6376;48.182;-1.644;2024-01-16T05:53:55;7.60;74.80
12622;DHT22;6376;48.182;-1.644;2024-01-16T05:56:21;7.60;74.80
12622;DHT22;6376;48.182;-1.644;2024-01-16T05:58:47;7.60;74.70
12622;DHT22;6376;48.182;-1.644;2024-01-16T06:01:12;7.60;74.80
12622;DHT22;6376;48.182;-1.644;2024-01-16T06:03:41;7.60;74.70
12622;DHT22;6376;48.182;-1.644;2024-01-16T06:06:07;7.60;74.80
12622;DHT22;6376;48.182;-1.644;2024-01-16T06:08:34;7.60;74.80
12622;DHT22;6376;48.182;-1.644;2024-01-16T06:10:59;7.60;74.70
12622;DHT22;6376;48.182;-1.644;2024-01-16T06:13:25;7.50;74.70
12622;DHT22;6376;48.182;-1.644;2024-01-16T06:15:51;7.60;74.70
12622;DHT22;6376;48.182;-1.644;2024-01-16T06:18:17;7.60;74.70
12622;DHT22;6376;48.182;-1.644;2024-01-16T06:20:42;7.60;74.70
12622;DHT22;6376;48.182;-1.644;2024-01-16T06:23:08;7.60;74.60
12622;DHT22;6376;48.182;-1.644;2024-01-16T06:25:34;7.60;74.60
12622;DHT22;6376;48.182;-1.644;2024-01-16T06:27:59;7.60;74.70
12622;DHT22;6376;48.182;-1.644;2024-01-16T06:30:25;7.50;74.70
12622;DHT22;6376;48.182;-1.644;2024-01-16T06:32:51;7.60;74.60
12622;DHT22;6376;48.182;-1.644;2024-01-16T06:35:17;7.60;75.50
12622;DHT22;6376;48.182;-1.644;2024-01-16T06:37:43;7.60;74.70
12622;DHT22;6376;48.182;-1.644;2024-01-16T06:40:09;7.60;74.70
12622;DHT22;6376;48.182;-1.644;2024-01-16T06:42:35;7.60;74.70
12622;DHT22;6376;48.182;-1.644;2024-01-16T06:45:04;7.60;74.80
12622;DHT22;6376;48.182;-1.644;2024-01-16T06:47:30;7.60;74.60
12622;DHT22;6376;48.182;-1.644;2024-01-16T06:49:56;7.50;74.50
12622;DHT22;6376;48.182;-1.644;2024-01-16T06:52:22;7.60;74.60
12622;DHT22;6376;48.182;-1.644;2024-01-16T06:54:47;7.60;74.70
12622;DHT22;6376;48.182;-1.644;2024-01-16T06:57:13;8.00;75.10
12622;DHT22;6376;48.182;-1.644;2024-01-16T06:59:38;7.60;74.70
12622;DHT22;6376;48.182;-1.644;2024-01-16T07:02:04;7.60;74.70
12622;DHT22;6376;48.182;-1.644;2024-01-16T07:04:30;7.60;74.70
12622;DHT22;6376;48.182;-1.644;2024-01-16T07:06:56;7.50;74.60
12622;DHT22;6376;48.182;-1.644;2024-01-16T07:09:22;7.50;74.60
12622;DHT22;6376;48.182;-1.644;2024-01-16T07:11:48;7.50;74.60
12622;DHT22;6376;48.182;-1.644;2024-01-16T07:14:14;7.50;74.50
12622;DHT22;6376;48.182;-1.644;2024-01-16T07:16:39;7.60;74.70
12622;DHT22;6376;48.182;-1.644;2024-01-16T07:19:05;7.50;74.70
12622;DHT22;6376;48.182;-1.644;2024-01-16T07:21:31;7.60;74.70
12622;DHT22;6376;48.182;-1.644;2024-01-16T07:23:57;7.50;74.60
12622;DHT22;6376;48.182;-1.644;2024-01-16T07:26:24;7.60;74.60
12622;DHT22;6376;48.182;-1.644;2024-01-16T07:28:50;7.50;74.60
12622;DHT22;6376;48.182;-1.644;2024-01-16T07:31:16;7.60;74.70
12622;DHT22;6376;48.182;-1.644;2024-01-16T07:33:42;7.60;74.60
12622;DHT22;6376;48.182;-1.644;2024-01-16T07:36:08;7.60;74.60
12622;DHT22;6376;48.182;-1.644;2024-01-16T07:38:36;7.50;74.50
12622;DHT22;6376;48.182;-1.644;2024-01-16T07:41:02;7.60;74.60
12622;DHT22;6376;48.182;-1.644;2024-01-16T07:43:27;7.50;74.40
12622;DHT22;6376;48.182;-1.644;2024-01-16T07:45:55;7.50;74.40
12622;DHT22;6376;48.182;-1.644;2024-01-16T07:48:21;7.60;74.50
12622;DHT22;6376;48.182;-1.644;2024-01-16T07:50:48;7.50;75.20
12622;DHT22;6376;48.182;-1.644;2024-01-16T07:53:14;7.50;75.20
12622;DHT22;6376;48.182;-1.644;2024-01-16T07:55:41;7.60;74.40
12622;DHT22;6376;48.182;-1.644;2024-01-16T07:58:06;7.60;74.60
12622;DHT22;6376;48.182;-1.644;2024-01-16T08:00:32;7.60;74.50
12622;DHT22;6376;48.182;-1.644;2024-01-16T08:02:58;7.60;74.40
12622;DHT22;6376;48.182;-1.644;2024-01-16T08:05:23;7.60;74.50
12622;DHT22;6376;48.182;-1.644;2024-01-16T08:07:53;7.60;74.50
12622;DHT22;6376;48.182;-1.644;2024-01-16T08:10:19;7.60;74.60
12622;DHT22;6376;48.182;-1.644;2024-01-16T08:12:45;7.60;74.40
12622;DHT22;6376;48.182;-1.644;2024-01-16T08:15:10;7.60;74.50
12622;DHT22;6376;48.182;-1.644;2024-01-16T08:17:36;7.60;74.50
12622;DHT22;6376;48.182;-1.644;2024-01-16T08:20:01;7.60;74.50
12622;DHT22;6376;48.182;-1.644;2024-01-16T08:22:28;7.60;74.40
12622;DHT22;6376;48.182;-1.644;2024-01-16T08:24:54;7.60;74.40
12622;DHT22;6376;48.182;-1.644;2024-01-16T08:27:20;7.60;74.30
12622;DHT22;6376;48.182;-1.644;2024-01-16T08:29:45;7.60;74.30
12622;DHT22;6376;48.182;-1.644;2024-01-16T08:32:12;7.60;74.50
12622;DHT22;6376;48.182;-1.644;2024-01-16T08:34:38;7.60;74.50
12622;DHT22;6376;48.182;-1.644;2024-01-16T08:37:04;7.60;74.40
12622;DHT22;6376;48.182;-1.644;2024-01-16T08:39:31;7.60;74.40
12622;DHT22;6376;48.182;-1.644;2024-01-16T08:41:58;7.60;74.40
12622;DHT22;6376;48.182;-1.644;2024-01-16T08:44:24;7.70;74.30
12622;DHT22;6376;48.182;-1.644;2024-01-16T08:46:50;7.60;74.20
12622;DHT22;6376;48.182;-1.644;2024-01-16T08:49:15;7.60;74.10
12622;DHT22;6376;48.182;-1.644;2024-01-16T08:51:41;7.60;74.20
12622;DHT22;6376;48.182;-1.644;2024-01-16T08:54:07;7.60;74.20
12622;DHT22;6376;48.182;-1.644;2024-01-16T08:56:33;8.00;74.70
12622;DHT22;6376;48.182;-1.644;2024-01-16T08:58:58;7.70;74.40
12622;DHT22;6376;48.182;-1.644;2024-01-16T09:01:24;7.70;74.20
12622;DHT22;6376;48.182;-1.644;2024-01-16T09:03:50;7.70;74.10
12622;DHT22;6376;48.182;-1.644;2024-01-16T09:06:17;7.70;74.30
12622;DHT22;6376;48.182;-1.644;2024-01-16T09:08:42;7.60;74.10
12622;DHT22;6376;48.182;-1.644;2024-01-16T09:11:09;7.70;74.10
12622;DHT22;6376;48.182;-1.644;2024-01-16T09:13:37;7.70;74.00
12622;DHT22;6376;48.182;-1.644;2024-01-16T09:16:03;7.70;74.10
12622;DHT22;6376;48.182;-1.644;2024-01-16T09:18:28;7.70;74.00
12622;DHT22;6376;48.182;-1.644;2024-01-16T09:20:54;7.70;74.10
12622;DHT22;6376;48.182;-1.644;2024-01-16T09:23:21;7.80;74.00
12622;DHT22;6376;48.182;-1.644;2024-01-16T09:25:47;7.80;73.80
12622;DHT22;6376;48.182;-1.644;2024-01-16T09:28:13;7.80;73.80
12622;DHT22;6376;48.182;-1.644;2024-01-16T09:30:38;7.80;73.80
12622;DHT22;6376;48.182;-1.644;2024-01-16T09:33:04;7.80;73.80
12622;DHT22;6376;48.182;-1.644;2024-01-16T09:35:32;7.80;73.70
12622;DHT22;6376;48.182;-1.644;2024-01-16T09:37:58;7.90;73.60
12622;DHT22;6376;48.182;-1.644;2024-01-16T09:40:25;7.90;73.60
12622;DHT22;6376;48.182;-1.644;2024-01-16T09:42:52;7.90;73.50
12622;DHT22;6376;48.182;-1.644;2024-01-16T09:45:20;8.00;73.40
12622;DHT22;6376;48.182;-1.644;2024-01-16T09:47:50;8.00;73.30
12622;DHT22;6376;48.182;-1.644;2024-01-16T09:50:18;8.00;73.30
12622;DHT22;6376;48.182;-1.644;2024-01-16T09:52:46;8.10;73.50
12622;DHT22;6376;48.182;-1.644;2024-01-16T09:55:12;8.20;73.60
12622;DHT22;6376;48.182;-1.644;2024-01-16T09:57:40;8.30;73.10
12622;DHT22;6376;48.182;-1.644;2024-01-16T10:00:11;8.40;72.30
12622;DHT22;6376;48.182;-1.644;2024-01-16T10:02:40;8.50;72.00
12622;DHT22;6376;48.182;-1.644;2024-01-16T10:05:13;8.60;71.70
12622;DHT22;6376;48.182;-1.644;2024-01-16T10:07:40;8.70;71.30
12622;DHT22;6376;48.182;-1.644;2024-01-16T10:10:06;8.80;71.10
12622;DHT22;6376;48.182;-1.644;2024-01-16T10:12:33;8.90;70.70
12622;DHT22;6376;48.182;-1.644;2024-01-16T10:14:59;8.90;70.60
12622;DHT22;6376;48.182;-1.644;2024-01-16T10:17:41;8.90;70.40
12622;DHT22;6376;48.182;-1.644;2024-01-16T10:20:11;8.90;70.50
12622;DHT22;6376;48.182;-1.644;2024-01-16T10:22:52;9.00;70.40
12622;DHT22;6376;48.182;-1.644;2024-01-16T10:25:18;9.10;70.20
12622;DHT22;6376;48.182;-1.644;2024-01-16T10:27:46;9.10;70.10
12622;DHT22;6376;48.182;-1.644;2024-01-16T10:30:12;9.10;69.90
12622;DHT22;6376;48.182;-1.644;2024-01-16T10:32:42;9.20;69.90
12622;DHT22;6376;48.182;-1.644;2024-01-16T10:35:13;9.30;69.70
12622;DHT22;6376;48.182;-1.644;2024-01-16T10:37:53;9.30;69.50
12622;DHT22;6376;48.182;-1.644;2024-01-16T10:40:22;9.30;69.50
12622;DHT22;6376;48.182;-1.644;2024-01-16T10:43:06;9.40;69.40
12622;DHT22;6376;48.182;-1.644;2024-01-16T10:45:32;9.50;69.20
12622;DHT22;6376;48.182;-1.644;2024-01-16T10:48:05;9.50;69.70
12622;DHT22;6376;48.182;-1.644;2024-01-16T10:50:32;9.60;68.80
12622;DHT22;6376;48.182;-1.644;2024-01-16T10:53:05;9.60;68.60
12622;DHT22;6376;48.182;-1.644;2024-01-16T10:55:50;9.70;68.40
12622;DHT22;6376;48.182;-1.644;2024-01-16T10:58:23;9.80;68.10
12622;DHT22;6376;48.182;-1.644;2024-01-16T11:00:53;9.90;67.90
12622;DHT22;6376;48.182;-1.644;2024-01-16T11:03:25;10.00;67.70
12622;DHT22;6376;48.182;-1.644;2024-01-16T11:05:53;9.90;67.60
12622;DHT22;6376;48.182;-1.644;2024-01-16T11:08:20;10.00;67.50
12622;DHT22;6376;48.182;-1.644;2024-01-16T11:10:48;10.10;67.20
12622;DHT22;6376;48.182;-1.644;2024-01-16T11:13:14;10.10;67.20
12622;DHT22;6376;48.182;-1.644;2024-01-16T11:15:41;10.20;67.10
12622;DHT22;6376;48.182;-1.644;2024-01-16T11:18:08;10.20;67.00
12622;DHT22;6376;48.182;-1.644;2024-01-16T11:20:35;10.20;67.10
12622;DHT22;6376;48.182;-1.644;2024-01-16T11:23:01;10.10;67.20
12622;DHT22;6376;48.182;-1.644;2024-01-16T11:25:31;9.90;67.60
12622;DHT22;6376;48.182;-1.644;2024-01-16T11:28:11;9.90;67.90
12622;DHT22;6376;48.182;-1.644;2024-01-16T11:30:37;9.80;68.00
12622;DHT22;6376;48.182;-1.644;2024-01-16T11:33:03;9.90;67.90
12622;DHT22;6376;48.182;-1.644;2024-01-16T11:35:33;10.00;67.50
12622;DHT22;6376;48.182;-1.644;2024-01-16T11:38:17;10.00;67.50
12622;DHT22;6376;48.182;-1.644;2024-01-16T11:40:44;10.00;67.70
12622;DHT22;6376;48.182;-1.644;2024-01-16T11:45:58;9.80;68.20
12622;DHT22;6376;48.182;-1.644;2024-01-16T11:48:24;9.80;68.60
12622;DHT22;6376;48.182;-1.644;2024-01-16T11:50:51;9.70;68.80
12622;DHT22;6376;48.182;-1.644;2024-01-16T11:53:37;9.60;68.90
12622;DHT22;6376;48.182;-1.644;2024-01-16T12:01:31;9.50;65.00
12622;DHT22;6376;48.182;-1.644;2024-01-16T12:04:07;9.50;65.50
12622;DHT22;6376;48.182;-1.644;2024-01-16T12:06:37;9.40;67.00
12622;DHT22;6376;48.182;-1.644;2024-01-16T12:09:15;9.30;67.30
12622;DHT22;6376;48.182;-1.644;2024-01-16T12:11:41;9.30;67.50
12622;DHT22;6376;48.182;-1.644;2024-01-16T12:14:14;9.30;67.70
12622;DHT22;6376;48.182;-1.644;2024-01-16T12:16:39;9.30;68.30
12622;DHT22;6376;48.182;-1.644;2024-01-16T12:19:06;9.30;68.70
12622;DHT22;6376;48.182;-1.644;2024-01-16T12:21:35;9.30;69.30
12622;DHT22;6376;48.182;-1.644;2024-01-16T12:24:04;9.40;68.20
12622;DHT22;6376;48.182;-1.644;2024-01-16T12:26:31;9.30;68.50
12622;DHT22;6376;48.182;-1.644;2024-01-16T12:28:57;9.40;68.50
12622;DHT22;6376;48.182;-1.644;2024-01-16T12:31:23;9.40;68.90
12622;DHT22;6376;48.182;-1.644;2024-01-16T12:33:50;9.30;68.80
12622;DHT22;6376;48.182;-1.644;2024-01-16T12:36:16;9.30;69.10
12622;DHT22;6376;48.182;-1.644;2024-01-16T12:38:42;9.30;69.30
12622;DHT22;6376;48.182;-1.644;2024-01-16T12:41:09;9.30;69.20
12622;DHT22;6376;48.182;-1.644;2024-01-16T12:43:36;9.30;69.50
12622;DHT22;6376;48.182;-1.644;2024-01-16T12:46:02;9.30;69.20
12622;DHT22;6376;48.182;-1.644;2024-01-16T12:48:28;9.30;69.10
12622;DHT22;6376;48.182;-1.644;2024-01-16T12:51:01;9.20;69.30
12622;DHT22;6376;48.182;-1.644;2024-01-16T12:53:32;9.20;68.90
12622;DHT22;6376;48.182;-1.644;2024-01-16T12:55:59;9.20;69.30
12622;DHT22;6376;48.182;-1.644;2024-01-16T12:58:28;9.20;69.60
12622;DHT22;6376;48.182;-1.644;2024-01-16T13:00:57;9.20;69.20
12622;DHT22;6376;48.182;-1.644;2024-01-16T13:03:24;9.20;69.60
12622;DHT22;6376;48.182;-1.644;2024-01-16T13:05:58;9.20;69.50
12622;DHT22;6376;48.182;-1.644;2024-01-16T13:08:25;9.20;70.00
12622;DHT22;6376;48.182;-1.644;2024-01-16T13:11:04;9.10;69.40
12622;DHT22;6376;48.182;-1.644;2024-01-16T13:13:30;9.10;69.60
12622;DHT22;6376;48.182;-1.644;2024-01-16T13:15:56;9.10;69.90
12622;DHT22;6376;48.182;-1.644;2024-01-16T13:18:25;9.10;70.00
12622;DHT22;6376;48.182;-1.644;2024-01-16T13:20:52;9.10;69.90
12622;DHT22;6376;48.182;-1.644;2024-01-16T13:23:18;9.10;70.20
12622;DHT22;6376;48.182;-1.644;2024-01-16T13:25:44;9.10;70.40
12622;DHT22;6376;48.182;-1.644;2024-01-16T13:28:17;9.10;70.30
12622;DHT22;6376;48.182;-1.644;2024-01-16T13:30:45;9.10;70.30
12622;DHT22;6376;48.182;-1.644;2024-01-16T13:33:11;9.00;69.90
12622;DHT22;6376;48.182;-1.644;2024-01-16T13:35:42;9.00;70.40
12622;DHT22;6376;48.182;-1.644;2024-01-16T13:38:09;9.00;70.00
12622;DHT22;6376;48.182;-1.644;2024-01-16T13:40:36;9.00;70.00
12622;DHT22;6376;48.182;-1.644;2024-01-16T13:43:04;9.00;70.30
12622;DHT22;6376;48.182;-1.644;2024-01-16T13:45:32;9.00;70.50
12622;DHT22;6376;48.182;-1.644;2024-01-16T13:47:58;8.90;70.10
12622;DHT22;6376;48.182;-1.644;2024-01-16T13:50:26;8.90;70.90
12622;DHT22;6376;48.182;-1.644;2024-01-16T13:52:52;8.90;70.90
12622;DHT22;6376;48.182;-1.644;2024-01-16T13:55:19;8.90;70.80
12622;DHT22;6376;48.182;-1.644;2024-01-16T13:57:44;8.90;70.70
12622;DHT22;6376;48.182;-1.644;2024-01-16T14:00:12;8.90;70.80
12622;DHT22;6376;48.182;-1.644;2024-01-16T14:02:42;8.90;70.80
12622;DHT22;6376;48.182;-1.644;2024-01-16T14:05:09;8.90;70.90
12622;DHT22;6376;48.182;-1.644;2024-01-16T14:07:58;8.90;70.60
12622;DHT22;6376;48.182;-1.644;2024-01-16T14:10:24;8.90;70.60
12622;DHT22;6376;48.182;-1.644;2024-01-16T14:12:51;8.90;70.70
12622;DHT22;6376;48.182;-1.644;2024-01-16T14:15:18;8.80;70.90
12622;DHT22;6376;48.182;-1.644;2024-01-16T14:17:56;8.90;70.80
12622;DHT22;6376;48.182;-1.644;2024-01-16T14:20:24;8.90;71.00
12622;DHT22;6376;48.182;-1.644;2024-01-16T14:22:52;8.80;70.90
12622;DHT22;6376;48.182;-1.644;2024-01-16T14:25:18;8.80;70.90
12622;DHT22;6376;48.182;-1.644;2024-01-16T14:27:50;8.80;70.80
12622;DHT22;6376;48.182;-1.644;2024-01-16T14:30:20;8.80;70.90
12622;DHT22;6376;48.182;-1.644;2024-01-16T14:32:46;8.80;71.10
12622;DHT22;6376;48.182;-1.644;2024-01-16T14:35:14;8.80;71.00
12622;DHT22;6376;48.182;-1.644;2024-01-16T14:37:42;8.80;71.10
12622;DHT22;6376;48.182;-1.644;2024-01-16T14:40:08;8.80;71.00
12622;DHT22;6376;48.182;-1.644;2024-01-16T14:42:44;8.80;70.90
12622;DHT22;6376;48.182;-1.644;2024-01-16T14:45:10;8.80;71.00
12622;DHT22;6376;48.182;-1.644;2024-01-16T14:47:39;8.80;71.10
12622;DHT22;6376;48.182;-1.644;2024-01-16T14:50:06;8.80;70.80
12622;DHT22;6376;48.182;-1.644;2024-01-16T14:52:32;8.80;71.10
12622;DHT22;6376;48.182;-1.644;2024-01-16T14:54:58;8.80;71.10
12622;DHT22;6376;48.182;-1.644;2024-01-16T14:57:25;8.70;70.80
12622;DHT22;6376;48.182;-1.644;2024-01-16T14:59:50;8.70;71.10
12622;DHT22;6376;48.182;-1.644;2024-01-16T15:02:16;8.70;70.80
12622;DHT22;6376;48.182;-1.644;2024-01-16T15:04:42;8.70;71.00
12622;DHT22;6376;48.182;-1.644;2024-01-16T15:07:09;8.70;71.20
12622;DHT22;6376;48.182;-1.644;2024-01-16T15:09:34;8.70;70.90
12622;DHT22;6376;48.182;-1.644;2024-01-16T15:12:12;8.70;71.10
12622;DHT22;6376;48.182;-1.644;2024-01-16T15:14:38;8.70;71.20
12622;DHT22;6376;48.182;-1.644;2024-01-16T15:17:04;8.70;71.10
12622;DHT22;6376;48.182;-1.644;2024-01-16T15:19:30;8.70;71.10
12622;DHT22;6376;48.182;-1.644;2024-01-16T15:21:55;8.70;71.00
12622;DHT22;6376;48.182;-1.644;2024-01-16T15:24:21;8.70;71.30
12622;DHT22;6376;48.182;-1.644;2024-01-16T15:26:54;8.70;71.30
12622;DHT22;6376;48.182;-1.644;2024-01-16T15:29:20;8.70;71.20
12622;DHT22;6376;48.182;-1.644;2024-01-16T15:31:46;8.70;71.20
12622;DHT22;6376;48.182;-1.644;2024-01-16T15:34:12;8.70;71.50
12622;DHT22;6376;48.182;-1.644;2024-01-16T15:36:37;8.70;71.20
12622;DHT22;6376;48.182;-1.644;2024-01-16T15:39:03;8.70;71.30
12622;DHT22;6376;48.182;-1.644;2024-01-16T15:41:29;8.70;71.30
12622;DHT22;6376;48.182;-1.644;2024-01-16T15:43:55;8.70;71.30
12622;DHT22;6376;48.182;-1.644;2024-01-16T15:46:22;8.70;71.40
12622;DHT22;6376;48.182;-1.644;2024-01-16T15:48:47;8.60;71.20
12622;DHT22;6376;48.182;-1.644;2024-01-16T15:51:16;8.60;71.10